createdAt,value
2022-09-01T00:01:30.489Z,13.76
2022-09-01T00:04:03.548Z,13.82
2022-09-01T00:06:32.874Z,13.91
2022-09-01T00:09:03.751Z,13.92
2022-09-01T00:11:32.025Z,13.93
2022-09-01T00:14:00.968Z,13.94
2022-09-01T00:16:28.964Z,13.98
2022-09-01T00:18:55.886Z,13.98
2022-09-01T00:21:26.287Z,14.01
2022-09-01T00:23:54.300Z,14.01
2022-09-01T00:26:21.391Z,14.03
2022-09-01T00:28:48.080Z,14.11
2022-09-01T00:31:15.136Z,14.09
2022-09-01T00:33:42.451Z,14.10
2022-09-01T00:36:09.735Z,14.06
2022-09-01T00:38:36.631Z,13.99
2022-09-01T00:41:03.810Z,13.97
2022-09-01T00:43:41.860Z,13.99
2022-09-01T00:46:13.027Z,13.90
2022-09-01T00:48:40.230Z,13.98
2022-09-01T00:51:11.299Z,13.99
2022-09-01T00:53:41.111Z,13.97
2022-09-01T00:56:08.836Z,13.96
2022-09-01T00:58:37.924Z,13.93
2022-09-01T01:01:07.043Z,13.93
2022-09-01T01:03:34.559Z,13.90
2022-09-01T01:06:05.011Z,13.85
2022-09-01T01:11:19.789Z,13.77
2022-09-01T01:13:48.802Z,13.84
2022-09-01T01:16:16.089Z,13.84
2022-09-01T01:18:43.351Z,13.84
2022-09-01T01:21:41.290Z,13.83
2022-09-01T01:24:27.436Z,13.93
2022-09-01T01:26:59.651Z,13.91
2022-09-01T01:29:40.257Z,13.84
2022-09-01T01:32:13.117Z,13.85
2022-09-01T01:34:43.561Z,13.78
2022-09-01T01:37:14.103Z,13.81
2022-09-01T01:39:43.816Z,13.77
2022-09-01T01:42:12.314Z,13.77
2022-09-01T01:44:39.880Z,13.73
2022-09-01T01:47:12.917Z,13.69
2022-09-01T01:49:43.877Z,13.73
2022-09-01T01:52:16.265Z,13.76
2022-09-01T01:54:46.246Z,13.76
2022-09-01T01:57:17.242Z,13.76
2022-09-01T01:59:45.204Z,13.69
2022-09-01T02:02:12.964Z,13.72
2022-09-01T02:04:40.419Z,13.74
2022-09-01T02:07:12.832Z,13.72
2022-09-01T02:09:44.037Z,13.67
2022-09-01T02:12:11.659Z,13.65
2022-09-01T02:14:42.265Z,13.65
2022-09-01T02:17:09.093Z,13.68
2022-09-01T02:19:41.773Z,13.71
2022-09-01T02:22:11.415Z,13.70
2022-09-01T02:24:46.424Z,13.67
2022-09-01T02:27:15.703Z,13.62
2022-09-01T02:29:43.682Z,13.71
2022-09-01T02:32:11.609Z,13.68
2022-09-01T02:34:39.970Z,13.61
2022-09-01T02:37:06.637Z,13.57
2022-09-01T02:39:33.592Z,13.59
2022-09-01T02:42:01.363Z,13.61
2022-09-01T02:44:32.131Z,13.64
2022-09-01T02:47:00.834Z,13.66
2022-09-01T02:49:31.420Z,13.63
2022-09-01T02:52:01.549Z,13.62
2022-09-01T02:54:30.939Z,13.62
2022-09-01T02:56:58.004Z,13.64
2022-09-01T02:59:27.646Z,13.67
2022-09-01T03:01:57.986Z,13.61
2022-09-01T03:04:27.294Z,13.66
2022-09-01T03:06:54.832Z,13.64
2022-09-01T03:09:23.114Z,13.61
2022-09-01T03:11:52.369Z,13.57
2022-09-01T03:14:20.564Z,13.45
2022-09-01T03:16:48.202Z,13.38
2022-09-01T03:19:17.460Z,13.32
2022-09-01T03:21:45.438Z,13.24
2022-09-01T03:24:17.822Z,13.17
2022-09-01T03:26:46.993Z,13.08
2022-09-01T03:29:18.058Z,13.13
2022-09-01T03:31:44.950Z,13.17
2022-09-01T03:34:12.529Z,13.11
2022-09-01T03:36:50.480Z,13.05
2022-09-01T03:39:29.707Z,13.02
2022-09-01T03:41:58.887Z,12.95
2022-09-01T03:44:26.704Z,12.90
2022-09-01T03:46:53.393Z,12.84
2022-09-01T03:49:27.705Z,12.82
2022-09-01T03:51:57.361Z,12.77
2022-09-01T03:54:27.842Z,12.74
2022-09-01T03:56:57.613Z,12.71
2022-09-01T03:59:25.667Z,12.68
2022-09-01T04:01:52.500Z,12.67
2022-09-01T04:04:19.984Z,12.66
2022-09-01T04:06:46.655Z,12.68
2022-09-01T04:09:14.235Z,12.68
2022-09-01T04:11:46.342Z,12.64
2022-09-01T04:14:15.810Z,12.61
2022-09-01T04:17:02.909Z,12.61
2022-09-01T04:19:36.565Z,12.58
2022-09-01T04:22:03.637Z,12.51
2022-09-01T04:24:45.095Z,12.48
2022-09-01T04:27:14.121Z,12.38
2022-09-01T04:29:41.860Z,12.39
2022-09-01T04:32:13.142Z,12.42
2022-09-01T04:34:43.135Z,12.37
2022-09-01T04:37:18.720Z,12.37
2022-09-01T04:39:56.282Z,12.38
2022-09-01T04:42:29.469Z,12.42
2022-09-01T04:44:59.989Z,12.42
2022-09-01T04:47:35.348Z,12.44
2022-09-01T04:50:12.900Z,12.48
2022-09-01T04:52:42.393Z,12.51
2022-09-01T04:55:19.138Z,12.54
2022-09-01T04:57:47.721Z,12.54
2022-09-01T05:00:22.840Z,12.56
2022-09-01T05:02:52.294Z,12.64
2022-09-01T05:05:22.245Z,12.65
2022-09-01T05:07:54.925Z,12.67
2022-09-01T05:10:23.477Z,12.72
2022-09-01T05:13:17.631Z,12.78
2022-09-01T05:15:47.098Z,12.77
2022-09-01T05:18:23.323Z,12.80
2022-09-01T05:20:52.162Z,12.84
2022-09-01T05:23:19.763Z,12.85
2022-09-01T05:25:49.554Z,12.87
2022-09-01T05:28:19.133Z,12.95
2022-09-01T05:30:49.121Z,12.90
2022-09-01T05:33:21.232Z,12.92
2022-09-01T05:35:59.851Z,12.99
2022-09-01T05:38:30.800Z,13.04
2022-09-01T05:41:04.478Z,13.08
2022-09-01T05:43:32.487Z,13.13
2022-09-01T05:46:07.187Z,13.26
2022-09-01T05:48:39.844Z,13.31
2022-09-01T05:51:27.448Z,13.44
2022-09-01T05:53:59.315Z,13.59
2022-09-01T05:56:30.795Z,13.66
2022-09-01T06:01:50.516Z,13.73
2022-09-01T06:04:18.118Z,13.71
2022-09-01T06:07:05.914Z,13.79
2022-09-01T06:09:41.761Z,13.74
2022-09-01T06:12:18.151Z,13.68
2022-09-01T06:14:47.607Z,13.63
2022-09-01T06:17:16.988Z,13.65
2022-09-01T06:19:44.255Z,13.68
2022-09-01T06:22:11.733Z,13.59
2022-09-01T06:24:40.345Z,13.53
2022-09-01T06:27:10.539Z,13.53
2022-09-01T06:29:41.613Z,13.53
2022-09-01T06:32:10.402Z,13.55
2022-09-01T06:34:44.511Z,13.64
2022-09-01T06:37:13.298Z,13.73
2022-09-01T06:39:43.974Z,13.82
2022-09-01T06:42:14.944Z,13.86
2022-09-01T06:44:48.428Z,13.88
2022-09-01T06:47:15.678Z,13.95
2022-09-01T06:49:42.755Z,13.91
2022-09-01T06:52:16.126Z,13.85
2022-09-01T06:54:44.086Z,13.91
2022-09-01T06:59:58.119Z,14.20
2022-09-01T07:02:27.179Z,14.16
2022-09-01T07:08:13.416Z,14.20
2022-09-01T07:16:51.699Z,14.45
2022-09-01T07:19:21.250Z,14.47
2022-09-01T07:22:35.875Z,14.43
2022-09-01T07:25:11.432Z,14.46
2022-09-01T07:27:56.504Z,14.52
2022-09-01T07:30:27.442Z,14.50
2022-09-01T07:32:55.865Z,14.49
2022-09-01T07:35:24.488Z,14.51
2022-09-01T07:43:52.903Z,14.94
2022-09-01T07:46:40.448Z,15.04
2022-09-01T07:49:36.649Z,15.13
2022-09-01T07:52:03.997Z,15.23
2022-09-01T07:54:31.533Z,15.32
2022-09-01T07:56:58.209Z,15.29
2022-09-01T07:59:27.895Z,15.32
2022-09-01T08:02:05.749Z,15.40
2022-09-01T08:04:34.084Z,15.68
2022-09-01T08:07:01.783Z,15.96
2022-09-01T08:09:37.511Z,15.92
2022-09-01T08:12:09.100Z,16.11
2022-09-01T08:14:45.676Z,16.24
2022-09-01T08:17:17.051Z,16.38
2022-09-01T08:19:46.948Z,16.48
2022-09-01T08:22:24.048Z,16.61
2022-09-01T08:25:01.986Z,16.81
2022-09-01T08:27:28.947Z,17.00
2022-09-01T08:29:55.811Z,17.14
2022-09-01T08:32:22.534Z,17.17
2022-09-01T08:34:49.796Z,17.24
2022-09-01T08:37:16.651Z,17.11
2022-09-01T08:39:43.409Z,16.90
2022-09-01T08:42:56.631Z,17.25
2022-09-01T08:45:55.265Z,17.20
2022-09-01T08:49:23.517Z,17.43
2022-09-01T08:51:46.088Z,17.74
2022-09-01T08:54:29.483Z,18.17
2022-09-01T08:57:01.983Z,18.29
2022-09-01T08:59:48.660Z,18.34
2022-09-01T09:03:12.716Z,18.79
2022-09-01T09:06:04.031Z,19.07
2022-09-01T09:08:46.090Z,19.62
2022-09-01T09:11:18.741Z,19.19
2022-09-01T09:14:11.302Z,19.19
2022-09-01T09:16:46.963Z,18.70
2022-09-01T09:19:24.508Z,18.60
2022-09-01T09:21:54.510Z,18.82
2022-09-01T09:24:50.168Z,18.77
2022-09-01T09:27:28.115Z,18.87
2022-09-01T09:30:04.232Z,19.24
2022-09-01T09:35:44.260Z,18.96
2022-09-01T09:38:27.688Z,18.95
2022-09-01T09:41:17.327Z,18.98
2022-09-01T09:44:00.163Z,19.08
2022-09-01T09:46:35.859Z,18.89
2022-09-01T09:49:35.132Z,19.05
2022-09-01T09:52:10.239Z,19.18
2022-09-01T09:54:40.185Z,19.06
2022-09-01T09:57:11.622Z,19.08
2022-09-01T09:59:59.189Z,19.46
2022-09-01T10:02:34.963Z,19.81
2022-09-01T10:05:22.809Z,19.92
2022-09-01T10:07:50.134Z,20.22
2022-09-01T10:10:42.957Z,19.99
2022-09-01T10:13:18.978Z,19.64
2022-09-01T10:15:55.063Z,19.44
2022-09-01T10:18:37.757Z,19.52
2022-09-01T10:21:24.104Z,19.65
2022-09-01T10:23:50.774Z,20.08
2022-09-01T10:26:38.836Z,20.25
2022-09-01T10:29:06.669Z,20.14
2022-09-01T10:31:34.063Z,19.81
2022-09-01T10:34:06.106Z,19.75
2022-09-01T10:36:35.571Z,19.47
2022-09-01T10:39:09.001Z,19.38
2022-09-01T10:42:00.050Z,19.39
2022-09-01T10:44:34.332Z,19.72
2022-09-01T10:47:30.168Z,19.82
2022-09-01T10:50:01.264Z,19.68
2022-09-01T10:52:40.410Z,20.07
2022-09-01T10:55:32.629Z,19.99
2022-09-01T11:01:49.597Z,20.71
2022-09-01T11:04:28.857Z,21.59
2022-09-01T11:07:13.903Z,22.33
2022-09-01T11:09:43.604Z,22.97
2022-09-01T11:12:37.672Z,23.18
2022-09-01T11:15:14.431Z,23.50
2022-09-01T11:17:50.765Z,23.67
2022-09-01T11:20:26.322Z,24.03
2022-09-01T11:22:59.199Z,24.68
2022-09-01T11:25:41.105Z,25.24
2022-09-01T11:28:15.598Z,25.64
2022-09-01T11:30:53.038Z,25.13
2022-09-01T11:33:58.531Z,24.14
2022-09-01T11:36:48.685Z,22.41
2022-09-01T11:39:15.291Z,22.14
2022-09-01T11:42:04.288Z,21.77
2022-09-01T11:44:47.338Z,22.47
2022-09-01T11:47:19.908Z,23.61
2022-09-01T11:49:59.783Z,23.48
2022-09-01T11:52:30.658Z,23.58
2022-09-01T11:54:58.875Z,23.28
2022-09-01T11:57:35.242Z,24.24
2022-09-01T12:00:11.557Z,24.01
2022-09-01T12:02:50.375Z,24.71
2022-09-01T12:05:40.769Z,25.06
2022-09-01T12:08:18.261Z,24.82
2022-09-01T12:10:50.674Z,23.32
2022-09-01T12:13:22.170Z,23.16
2022-09-01T12:16:17.975Z,24.56
2022-09-01T12:18:51.383Z,25.32
2022-09-01T12:21:23.066Z,25.83
2022-09-01T12:23:50.351Z,26.65
2022-09-01T12:26:23.066Z,27.45
2022-09-01T12:28:51.212Z,27.20
2022-09-01T12:31:22.337Z,27.33
2022-09-01T12:33:50.831Z,27.21
2022-09-01T12:36:21.526Z,27.93
2022-09-01T12:38:49.125Z,28.33
2022-09-01T12:41:24.793Z,28.55
2022-09-01T12:43:54.608Z,28.84
2022-09-01T12:46:44.880Z,29.25
2022-09-01T12:49:22.423Z,28.81
2022-09-01T12:51:49.171Z,29.29
2022-09-01T12:54:16.165Z,28.80
2022-09-01T12:56:50.383Z,28.99
2022-09-01T12:59:36.255Z,29.30
2022-09-01T13:02:27.536Z,28.79
2022-09-01T13:04:54.483Z,30.04
2022-09-01T13:07:21.158Z,30.18
2022-09-01T13:09:50.537Z,30.84
2022-09-01T13:12:21.096Z,28.76
2022-09-01T13:14:47.818Z,26.86
2022-09-01T13:17:15.030Z,27.15
2022-09-01T13:19:42.212Z,27.06
2022-09-01T13:22:08.929Z,28.47
2022-09-01T13:24:35.604Z,29.26
2022-09-01T13:29:49.696Z,29.87
2022-09-01T13:32:18.942Z,30.51
2022-09-01T13:34:47.514Z,30.17
2022-09-01T13:37:14.479Z,30.09
2022-09-01T13:39:41.081Z,29.83
2022-09-01T13:42:08.016Z,30.66
2022-09-01T13:44:35.473Z,30.92
2022-09-01T13:52:35.941Z,29.42
2022-09-01T13:55:02.567Z,29.86
2022-09-01T13:57:31.027Z,29.76
2022-09-01T14:00:17.286Z,29.52
2022-09-01T14:02:50.156Z,27.85
2022-09-01T14:05:19.439Z,28.07
2022-09-01T14:07:46.539Z,28.89
2022-09-01T14:10:14.700Z,29.32
2022-09-01T14:12:42.336Z,29.26
2022-09-01T14:15:13.935Z,28.52
2022-09-01T14:17:44.063Z,29.70
2022-09-01T14:20:18.535Z,29.72
2022-09-01T14:22:46.434Z,30.09
2022-09-01T14:25:14.797Z,29.81
2022-09-01T14:27:44.620Z,29.04
2022-09-01T14:30:19.436Z,29.85
2022-09-01T14:32:47.774Z,30.20
2022-09-01T14:35:16.771Z,30.24
2022-09-01T14:37:45.666Z,29.65
2022-09-01T14:40:16.718Z,29.46
2022-09-01T14:42:49.706Z,29.82
2022-09-01T14:45:19.566Z,30.20
2022-09-01T14:47:48.967Z,30.47
2022-09-01T14:50:21.673Z,30.11
2022-09-01T14:52:54.716Z,29.20
2022-09-01T14:55:23.679Z,29.39
2022-09-01T14:57:51.534Z,30.00
2022-09-01T15:00:19.244Z,29.64
2022-09-01T15:02:46.602Z,29.13
2022-09-01T15:05:14.279Z,28.62
2022-09-01T15:07:42.722Z,28.66
2022-09-01T15:10:11.783Z,29.63
2022-09-01T15:12:42.896Z,29.49
2022-09-01T15:15:09.960Z,28.33
2022-09-01T15:17:37.034Z,28.89
2022-09-01T15:20:24.235Z,28.71
2022-09-01T15:22:51.713Z,27.44
2022-09-01T15:25:19.054Z,26.11
2022-09-01T15:27:47.047Z,25.29
2022-09-01T15:30:17.985Z,24.33
2022-09-01T15:32:46.326Z,24.21
2022-09-01T15:35:14.705Z,24.34
2022-09-01T15:37:41.918Z,24.93
2022-09-01T15:40:10.061Z,24.66
2022-09-01T15:42:38.185Z,24.13
2022-09-01T15:45:08.261Z,23.62
2022-09-01T15:47:35.644Z,23.06
2022-09-01T15:50:06.429Z,22.87
2022-09-01T15:52:34.771Z,22.71
2022-09-01T15:55:03.582Z,22.49
2022-09-01T15:57:30.199Z,21.57
2022-09-01T15:59:57.807Z,21.11
2022-09-01T16:02:27.507Z,21.00
2022-09-01T16:04:59.155Z,20.55
2022-09-01T16:07:26.600Z,20.15
2022-09-01T16:09:57.849Z,19.93
2022-09-01T16:12:26.659Z,20.12
2022-09-01T16:14:55.483Z,20.14
2022-09-01T16:18:00.410Z,20.28
2022-09-01T16:20:38.237Z,20.05
2022-09-01T16:23:18.102Z,20.03
2022-09-01T16:25:46.533Z,19.96
2022-09-01T16:28:28.617Z,19.99
2022-09-01T16:31:04.565Z,19.88
2022-09-01T16:33:33.454Z,19.39
2022-09-01T16:36:07.057Z,19.42
2022-09-01T16:38:39.997Z,19.43
2022-09-01T16:41:44.517Z,19.49
2022-09-01T16:44:35.878Z,19.47
2022-09-01T16:47:15.578Z,19.36
2022-09-01T16:49:54.288Z,19.21
2022-09-01T16:52:29.433Z,19.19
2022-09-01T16:55:19.927Z,19.06
2022-09-01T16:57:59.033Z,18.90
2022-09-01T17:00:37.265Z,18.90
2022-09-01T17:03:17.567Z,18.88
2022-09-01T17:05:55.537Z,18.91
2022-09-01T17:08:30.970Z,18.91
2022-09-01T17:11:05.153Z,18.94
2022-09-01T17:13:38.309Z,18.79
2022-09-01T17:16:12.672Z,18.68
2022-09-01T17:18:41.260Z,18.53
2022-09-01T17:21:13.785Z,18.32
2022-09-01T17:23:52.414Z,18.19
2022-09-01T17:26:24.962Z,17.93
2022-09-01T17:29:09.370Z,17.87
2022-09-01T17:31:58.059Z,17.79
2022-09-01T17:34:34.632Z,17.66
2022-09-01T17:37:09.275Z,17.55
2022-09-01T17:39:57.280Z,17.41
2022-09-01T17:42:33.662Z,17.29
2022-09-01T17:45:29.023Z,17.18
2022-09-01T17:48:12.365Z,17.06
2022-09-01T17:51:04.971Z,16.93
2022-09-01T17:53:43.843Z,16.77
2022-09-01T17:56:22.183Z,16.63
2022-09-01T17:59:01.379Z,16.51
2022-09-01T18:01:36.738Z,16.45
2022-09-01T18:04:52.481Z,16.32
2022-09-01T18:07:34.156Z,16.12
2022-09-01T18:10:04.332Z,15.98
2022-09-01T18:12:38.967Z,15.84
2022-09-01T18:15:11.216Z,15.64
2022-09-01T18:17:40.892Z,15.51
2022-09-01T18:20:24.230Z,15.47
2022-09-01T18:22:50.858Z,15.36
2022-09-01T18:25:22.242Z,15.26
2022-09-01T18:27:49.031Z,15.27
2022-09-01T18:30:26.253Z,15.18
2022-09-01T18:33:33.094Z,15.02
2022-09-01T18:36:21.548Z,14.97
2022-09-01T18:39:01.213Z,14.90
2022-09-01T18:41:54.926Z,14.71
2022-09-01T18:44:29.065Z,14.58
2022-09-01T18:47:12.046Z,14.51
2022-09-01T18:49:44.387Z,14.46
2022-09-01T18:52:23.194Z,14.39
2022-09-01T18:55:25.682Z,14.32
2022-09-01T18:57:56.210Z,14.30
2022-09-01T19:00:59.299Z,14.07
2022-09-01T19:03:32.444Z,14.11
2022-09-01T19:06:10.003Z,14.01
2022-09-01T19:08:48.139Z,13.97
2022-09-01T19:11:19.396Z,13.87
2022-09-01T19:14:04.497Z,13.61
2022-09-01T19:17:03.829Z,13.56
2022-09-01T19:19:33.636Z,13.47
2022-09-01T19:22:00.330Z,13.47
2022-09-01T19:24:33.387Z,13.42
2022-09-01T19:27:30.553Z,13.22
2022-09-01T19:30:06.239Z,13.09
2022-09-01T19:32:35.208Z,13.08
2022-09-01T19:35:14.722Z,13.05
2022-09-01T19:37:42.674Z,13.06
2022-09-01T19:40:10.435Z,13.13
2022-09-01T19:43:00.061Z,13.08
2022-09-01T19:46:08.602Z,12.90
2022-09-01T19:48:44.413Z,12.84
2022-09-01T19:51:24.259Z,12.75
2022-09-01T19:54:03.078Z,12.71
2022-09-01T19:56:57.557Z,12.64
2022-09-01T19:59:46.955Z,12.63
2022-09-01T20:02:34.875Z,12.64
2022-09-01T20:05:07.938Z,12.62
2022-09-01T20:07:54.530Z,12.60
2022-09-01T20:10:55.294Z,12.66
2022-09-01T20:13:47.892Z,12.59
2022-09-01T20:16:27.325Z,12.53
2022-09-01T20:18:53.877Z,12.39
2022-09-01T20:21:21.591Z,12.41
2022-09-01T20:23:51.363Z,12.34
2022-09-01T20:26:47.345Z,12.29
2022-09-01T20:29:35.989Z,12.26
2022-09-01T20:32:04.065Z,12.31
2022-09-01T20:34:54.976Z,12.36
2022-09-01T20:37:30.334Z,12.43
2022-09-01T20:40:13.172Z,12.54
2022-09-01T20:43:08.445Z,12.55
2022-09-01T20:45:35.900Z,12.60
2022-09-01T20:48:14.370Z,12.69
2022-09-01T20:50:50.227Z,12.70
2022-09-01T20:53:38.646Z,12.68
2022-09-01T20:56:33.333Z,12.74
2022-09-01T20:59:08.717Z,12.66
2022-09-01T21:01:52.362Z,12.57
2022-09-01T21:04:24.894Z,12.57
2022-09-01T21:07:09.889Z,12.60
2022-09-01T21:10:01.448Z,12.54
2022-09-01T21:12:37.119Z,12.48
2022-09-01T21:15:31.892Z,12.44
2022-09-01T21:18:16.986Z,12.37
2022-09-01T21:21:21.950Z,12.28
2022-09-01T21:23:48.668Z,12.35
2022-09-01T21:26:15.355Z,12.32
2022-09-01T21:28:45.073Z,12.33
2022-09-01T21:31:14.803Z,12.27
2022-09-01T21:33:41.515Z,12.25
2022-09-01T21:36:08.565Z,12.21
2022-09-01T21:38:35.581Z,12.18
2022-09-01T21:41:02.522Z,12.13
2022-09-01T21:43:36.344Z,12.04
2022-09-01T21:46:04.028Z,12.05
2022-09-01T21:48:31.060Z,12.05
2022-09-01T21:50:57.697Z,12.02
2022-09-01T21:53:24.308Z,11.93
2022-09-01T21:55:50.940Z,11.88
2022-09-01T21:58:17.657Z,11.94
2022-09-01T22:00:44.609Z,11.93
2022-09-01T22:03:12.359Z,11.92
2022-09-01T22:05:41.790Z,11.84
2022-09-01T22:08:13.645Z,11.82
2022-09-01T22:10:46.331Z,11.81
2022-09-01T22:13:13.589Z,11.77
2022-09-01T22:15:43.366Z,11.73
2022-09-01T22:18:10.381Z,11.68
2022-09-01T22:20:37.418Z,11.76
2022-09-01T22:23:04.157Z,11.68
2022-09-01T22:25:32.672Z,11.66
2022-09-01T22:28:05.114Z,11.63
2022-09-01T22:30:32.371Z,11.60
2022-09-01T22:33:01.049Z,11.55
2022-09-01T22:35:28.048Z,11.49
2022-09-01T22:37:55.249Z,11.42
2022-09-01T22:40:21.995Z,11.37
2022-09-01T22:42:48.843Z,11.35
2022-09-01T22:45:15.724Z,11.39
2022-09-01T22:47:42.415Z,11.37
2022-09-01T22:50:10.027Z,11.27
2022-09-01T22:52:36.770Z,11.18
2022-09-01T22:55:04.979Z,11.16
2022-09-01T22:57:31.991Z,11.15
2022-09-01T22:59:58.747Z,11.26
2022-09-01T23:02:25.448Z,11.28
2022-09-01T23:04:52.794Z,11.24
2022-09-01T23:07:19.453Z,11.15
2022-09-01T23:09:46.121Z,11.11
2022-09-01T23:12:14.691Z,11.05
2022-09-01T23:14:41.563Z,11.02
2022-09-01T23:17:08.216Z,10.98
2022-09-01T23:19:34.845Z,11.04
2022-09-01T23:22:02.969Z,10.99
2022-09-01T23:24:29.670Z,10.93
2022-09-01T23:26:56.865Z,10.97
2022-09-01T23:29:25.242Z,11.00
2022-09-01T23:31:52.179Z,10.96
2022-09-01T23:34:18.854Z,10.88
2022-09-01T23:36:45.525Z,10.91
2022-09-01T23:39:12.261Z,10.93
2022-09-01T23:41:38.958Z,10.91
2022-09-01T23:44:09.767Z,10.84
2022-09-01T23:46:45.631Z,10.84
2022-09-01T23:49:14.487Z,10.83
2022-09-01T23:51:41.407Z,10.86
2022-09-01T23:54:08.356Z,10.83
2022-09-01T23:56:35.256Z,10.78
2022-09-01T23:59:02.001Z,10.70
